Time;durP1;ratioP1;P1;durP2;ratioP2;P2;SDS_P1;SDS_P2;PMS_P1;PMS_P2;Temp;Humidity;BMP_temperature;BMP_pressure;BME280_temperature;BME280_humidity;BME280_pressure;Samples;Min_cycle;Max_cycle;Signal;HPM_P1;HPM_P2
2022/09/22 00:01:26;;;;;;;2.03;1.83;;;8.00;99.90;;;;;;5035650;28;20497;-72
2022/09/22 00:03:54;;;;;;;1.80;1.60;;;8.00;99.90;;;;;;5035756;28;20191;-73
2022/09/22 00:06:22;;;;;;;4.70;1.83;;;8.00;99.90;;;;;;5035334;28;20927;-73
2022/09/22 00:08:53;;;;;;;2.83;1.80;;;7.90;99.90;;;;;;5035621;28;20906;-73
2022/09/22 00:11:27;;;;;;;3.00;2.00;;;7.90;99.90;;;;;;5035625;28;20397;-73
2022/09/22 00:13:58;;;;;;;8.27;2.03;;;7.90;99.90;;;;;;5035313;28;20760;-73
2022/09/22 00:16:27;;;;;;;2.83;2.03;;;7.90;99.90;;;;;;5033765;28;20438;-72
2022/09/22 00:18:52;;;;;;;2.20;1.63;;;7.90;99.90;;;;;;5035374;28;20398;-72
2022/09/22 00:21:21;;;;;;;2.33;2.07;;;7.80;99.90;;;;;;5035423;28;20731;-73
2022/09/22 00:23:47;;;;;;;3.93;2.37;;;7.90;99.90;;;;;;5035449;28;20170;-72
2022/09/22 00:26:20;;;;;;;5.63;2.33;;;7.90;99.90;;;;;;5033838;28;20947;-73
2022/09/22 00:28:47;;;;;;;7.50;2.57;;;7.80;99.90;;;;;;5035783;28;20430;-73
2022/09/22 00:31:19;;;;;;;2.97;1.93;;;7.80;99.90;;;;;;5035250;28;20402;-72
2022/09/22 00:33:45;;;;;;;4.80;2.60;;;7.80;99.90;;;;;;5035090;28;20938;-72
2022/09/22 00:36:11;;;;;;;2.10;1.90;;;7.80;99.90;;;;;;5034762;28;20425;-73
2022/09/22 00:38:38;;;;;;;5.10;2.30;;;7.80;99.90;;;;;;5035121;28;20406;-72
2022/09/22 00:41:04;;;;;;;2.90;2.37;;;7.70;99.90;;;;;;5035147;28;20394;-72
2022/09/22 00:43:35;;;;;;;5.63;2.87;;;7.70;99.90;;;;;;5035017;28;20728;-72
2022/09/22 00:46:21;;;;;;;6.20;1.80;;;7.70;99.90;;;;;;5034597;28;20426;-72
2022/09/22 00:48:54;;;;;;;3.10;2.03;;;7.70;99.90;;;;;;5035073;28;20394;-72
2022/09/22 00:51:23;;;;;;;3.10;2.30;;;7.60;99.90;;;;;;5034901;28;20504;-72
2022/09/22 00:53:50;;;;;;;2.17;1.80;;;7.70;99.90;;;;;;5033536;28;20842;-72
2022/09/22 00:56:29;;;;;;;2.40;2.20;;;7.60;99.90;;;;;;5033182;28;20426;-72
2022/09/22 00:59:06;;;;;;;2.53;2.00;;;7.60;99.90;;;;;;5034982;28;20485;-72
2022/09/22 01:01:35;;;;;;;2.83;2.50;;;7.60;99.90;;;;;;5034499;28;20450;-72
2022/09/22 01:04:05;;;;;;;3.37;2.10;;;7.60;99.90;;;;;;5033726;28;20452;-72
2022/09/22 01:06:32;;;;;;;4.07;2.87;;;7.60;99.90;;;;;;5033891;28;20418;-72
2022/09/22 01:08:59;;;;;;;3.00;2.10;;;7.50;99.90;;;;;;5034637;28;20405;-72
2022/09/22 01:11:25;;;;;;;2.90;2.23;;;7.50;99.90;;;;;;5033566;28;20457;-73
2022/09/22 01:14:12;;;;;;;3.63;2.43;;;7.50;99.90;;;;;;5034432;28;20467;-72
2022/09/22 01:16:47;;;;;;;5.13;2.47;;;7.60;99.90;;;;;;5033098;28;20430;-73
2022/09/22 01:19:46;;;;;;;3.30;2.03;;;7.60;99.90;;;;;;5033757;28;20441;-73
2022/09/22 01:22:17;;;;;;;7.47;2.30;;;7.50;99.90;;;;;;5034365;28;20403;-73
2022/09/22 01:25:01;;;;;;;3.40;2.20;;;7.50;99.90;;;;;;5032785;28;20433;-73
2022/09/22 01:27:59;;;;;;;3.93;2.03;;;7.40;99.90;;;;;;5034480;28;20460;-72
2022/09/22 01:30:36;;;;;;;2.87;1.77;;;7.40;99.90;;;;;;5033095;28;20468;-73
2022/09/22 01:33:16;;;;;;;6.43;2.40;;;7.30;99.90;;;;;;5033178;28;20442;-73
2022/09/22 01:35:57;;;;;;;2.83;2.40;;;7.30;99.90;;;;;;5034008;28;20461;-72
2022/09/22 01:39:09;;;;;;;4.20;2.27;;;7.20;99.90;;;;;;5034201;28;20464;-72
2022/09/22 01:41:41;;;;;;;4.00;2.30;;;7.30;99.90;;;;;;5011120;28;20418;-72
2022/09/22 01:44:15;;;;;;;31.50;17.07;;;7.20;99.90;;;;;;5030458;28;20414;-72
2022/09/22 01:46:52;;;;;;;6.27;4.77;;;7.20;99.90;;;;;;5033747;28;20910;-73
2022/09/22 01:49:19;;;;;;;5.40;2.20;;;7.20;99.90;;;;;;5033923;28;20398;-72
2022/09/22 01:51:53;;;;;;;4.90;2.47;;;7.20;99.90;;;;;;5032472;28;20418;-72
2022/09/22 01:54:28;;;;;;;5.07;2.30;;;7.30;99.90;;;;;;5032357;28;20480;-72
2022/09/22 01:57:02;;;;;;;4.50;2.10;;;7.30;99.90;;;;;;5033879;28;20437;-72
2022/09/22 01:59:31;;;;;;;2.70;1.87;;;7.40;99.90;;;;;;5033760;28;20749;-72
2022/09/22 02:02:02;;;;;;;3.67;2.90;;;7.30;99.90;;;;;;5032298;28;20525;-71
2022/09/22 02:04:40;;;;;;;4.50;2.60;;;7.20;99.90;;;;;;5032164;28;20480;-72
2022/09/22 02:07:10;;;;;;;3.87;2.77;;;7.20;99.90;;;;;;5033625;28;20852;-72
2022/09/22 02:09:38;;;;;;;11.50;2.20;;;7.10;99.90;;;;;;5033627;28;20477;-72
2022/09/22 02:12:04;;;;;;;4.00;2.20;;;7.10;99.90;;;;;;5033480;28;20414;-72
2022/09/22 02:14:30;;;;;;;3.93;1.80;;;7.10;99.90;;;;;;5032975;28;20959;-71
2022/09/22 02:16:56;;;;;;;2.77;2.40;;;7.10;99.90;;;;;;5033087;28;20222;-72
2022/09/22 02:19:36;;;;;;;2.23;1.87;;;7.10;99.90;;;;;;5032541;28;20402;-72
2022/09/22 02:22:03;;;;;;;3.53;2.33;;;7.10;99.90;;;;;;5032172;28;20406;-72
2022/09/22 02:24:33;;;;;;;3.00;2.50;;;7.00;99.90;;;;;;5032900;28;20481;-73
2022/09/22 02:27:34;;;;;;;2.53;2.30;;;7.00;99.90;;;;;;5031964;28;20517;-73
2022/09/22 02:30:07;;;;;;;2.10;1.90;;;7.00;99.90;;;;;;5031001;28;20426;-72
2022/09/22 02:32:35;;;;;;;3.00;2.27;;;6.90;99.90;;;;;;5032895;28;20414;-72
2022/09/22 02:35:01;;;;;;;3.83;2.57;;;6.90;99.90;;;;;;5032562;28;20446;-73
2022/09/22 02:37:49;;;;;;;4.40;2.70;;;6.90;99.90;;;;;;5031441;28;20476;-72
2022/09/22 02:40:26;;;;;;;3.10;2.80;;;6.90;99.90;;;;;;5032954;28;20406;-71
2022/09/22 02:42:59;;;;;;;3.70;2.90;;;6.90;99.90;;;;;;5031575;28;20783;-72
2022/09/22 02:45:38;;;;;;;3.27;2.97;;;6.90;99.90;;;;;;5032575;28;20434;-71
2022/09/22 02:48:12;;;;;;;9.93;5.40;;;6.90;99.90;;;;;;5032706;28;20417;-72
2022/09/22 02:50:38;;;;;;;5.03;4.20;;;7.00;99.90;;;;;;5031797;28;20401;-72
2022/09/22 02:53:13;;;;;;;2.90;2.60;;;7.00;99.90;;;;;;5031224;28;20414;-73
2022/09/22 02:55:39;;;;;;;4.93;2.80;;;6.90;99.90;;;;;;5031948;28;20195;-73
2022/09/22 02:58:05;;;;;;;3.20;2.03;;;7.00;99.90;;;;;;5032535;28;20406;-73
2022/09/22 03:00:31;;;;;;;4.93;2.63;;;7.00;99.90;;;;;;5032712;28;20452;-73
2022/09/22 03:02:57;;;;;;;5.50;3.07;;;6.90;99.90;;;;;;5032455;28;20678;-72
2022/09/22 03:05:22;;;;;;;4.10;2.53;;;6.90;99.90;;;;;;5032004;28;20430;-72
2022/09/22 03:07:48;;;;;;;9.93;3.93;;;6.90;99.90;;;;;;5032542;28;20167;-73
2022/09/22 03:10:14;;;;;;;3.40;2.70;;;6.90;99.90;;;;;;5032334;28;20255;-72
2022/09/22 03:12:41;;;;;;;3.63;2.70;;;6.80;99.90;;;;;;5032488;28;20606;-72
2022/09/22 03:15:12;;;;;;;3.23;2.30;;;6.80;99.90;;;;;;5032231;28;20280;-73
2022/09/22 03:17:38;;;;;;;5.53;3.00;;;6.70;99.90;;;;;;5030892;28;20415;-73
2022/09/22 03:20:10;;;;;;;4.60;2.27;;;6.70;99.90;;;;;;5032183;28;20409;-73
2022/09/22 03:22:36;;;;;;;2.13;1.93;;;6.70;99.90;;;;;;5032153;28;20603;-73
2022/09/22 03:25:02;;;;;;;2.80;2.07;;;6.70;99.90;;;;;;5032011;28;20442;-73
2022/09/22 03:27:27;;;;;;;4.10;2.53;;;6.70;99.90;;;;;;5032334;28;20168;-72
2022/09/22 03:29:54;;;;;;;3.00;2.47;;;6.70;99.90;;;;;;5032433;28;20398;-73
2022/09/22 03:32:21;;;;;;;3.93;2.30;;;6.60;99.90;;;;;;5030970;28;20536;-73
2022/09/22 03:34:46;;;;;;;3.33;3.03;;;6.60;99.90;;;;;;5030467;28;20450;-73
2022/09/22 03:37:12;;;;;;;4.30;2.90;;;6.60;99.90;;;;;;5032150;28;20464;-72
2022/09/22 03:39:38;;;;;;;3.40;2.50;;;6.50;99.90;;;;;;5031956;28;20445;-72
2022/09/22 03:42:03;;;;;;;3.60;2.90;;;6.50;99.90;;;;;;5031973;28;20636;-72
2022/09/22 03:44:29;;;;;;;4.40;3.90;;;6.50;99.90;;;;;;5031866;28;20228;-72
2022/09/22 03:46:54;;;;;;;4.33;2.43;;;6.60;99.90;;;;;;5032161;28;20187;-72
2022/09/22 03:49:20;;;;;;;3.97;2.57;;;6.60;99.90;;;;;;5032049;28;20310;-72
2022/09/22 03:51:45;;;;;;;5.13;2.73;;;6.50;99.90;;;;;;5032212;28;20677;-72
2022/09/22 03:54:11;;;;;;;6.00;3.63;;;6.60;99.90;;;;;;5031896;28;20199;-72
2022/09/22 03:56:37;;;;;;;12.60;2.90;;;6.60;99.90;;;;;;5031985;28;20176;-72
2022/09/22 03:59:03;;;;;;;3.87;2.73;;;6.60;99.90;;;;;;5031716;28;20390;-72
2022/09/22 04:01:28;;;;;;;3.63;3.30;;;6.60;99.90;;;;;;5031538;28;20472;-72
2022/09/22 04:03:54;;;;;;;9.60;2.77;;;6.60;99.90;;;;;;5031857;28;20255;-72
2022/09/22 04:06:20;;;;;;;3.83;2.30;;;6.50;99.90;;;;;;5031648;28;20226;-72
2022/09/22 04:08:45;;;;;;;4.27;2.57;;;6.50;99.90;;;;;;5031854;28;20221;-72
2022/09/22 04:11:11;;;;;;;4.83;3.00;;;6.50;99.90;;;;;;5031735;28;20407;-71
2022/09/22 04:13:37;;;;;;;11.73;3.83;;;6.40;99.90;;;;;;5031835;28;20166;-72
2022/09/22 04:16:04;;;;;;;9.10;5.37;;;6.40;99.90;;;;;;5031488;28;20688;-71
2022/09/22 04:18:30;;;;;;;8.33;4.83;;;6.40;99.90;;;;;;5031552;28;20171;-71
2022/09/22 04:20:57;;;;;;;4.60;3.03;;;6.40;99.90;;;;;;5031652;28;20398;-72
2022/09/22 04:23:23;;;;;;;3.80;2.87;;;6.40;99.90;;;;;;5030902;28;20168;-72
2022/09/22 04:25:48;;;;;;;5.90;3.10;;;6.40;99.90;;;;;;5031435;28;20430;-72
2022/09/22 04:28:14;;;;;;;4.20;3.30;;;6.40;99.90;;;;;;5031694;28;20402;-72
2022/09/22 04:30:39;;;;;;;8.43;2.83;;;6.40;99.90;;;;;;5031852;28;20633;-72
2022/09/22 04:33:05;;;;;;;4.27;2.77;;;6.40;99.90;;;;;;5030667;28;20179;-72
2022/09/22 04:35:32;;;;;;;10.87;3.63;;;6.40;99.90;;;;;;5031565;28;20207;-73
2022/09/22 04:37:57;;;;;;;4.33;3.00;;;6.30;99.90;;;;;;5031615;28;20167;-72
2022/09/22 04:40:24;;;;;;;5.83;3.00;;;6.40;99.90;;;;;;5031653;28;20928;-72
2022/09/22 04:42:50;;;;;;;4.50;2.70;;;6.40;99.90;;;;;;5035028;28;20164;-73
2022/09/22 04:45:16;;;;;;;5.80;3.10;;;6.40;99.90;;;;;;5034944;28;20422;-72
2022/09/22 04:47:49;;;;;;;6.90;3.27;;;6.40;99.90;;;;;;5035221;28;20497;-72
2022/09/22 04:50:16;;;;;;;5.63;3.40;;;6.40;99.90;;;;;;5035242;28;20456;-73
2022/09/22 04:52:46;;;;;;;4.87;3.10;;;6.50;99.90;;;;;;5035051;28;20406;-72
2022/09/22 04:55:12;;;;;;;9.07;5.00;;;6.40;99.90;;;;;;5034449;28;20852;-72
2022/09/22 04:57:38;;;;;;;8.67;3.33;;;6.30;99.90;;;;;;5033818;28;20418;-73
2022/09/22 05:00:05;;;;;;;4.70;3.60;;;6.20;99.90;;;;;;5034932;28;20167;-72
2022/09/22 05:02:30;;;;;;;21.13;10.93;;;6.20;99.90;;;;;;5033656;28;20194;-72
2022/09/22 05:04:56;;;;;;;6.60;4.10;;;6.30;99.90;;;;;;5034576;28;20406;-72
2022/09/22 05:07:21;;;;;;;8.00;3.77;;;6.30;99.90;;;;;;5034865;28;20544;-73
2022/09/22 05:09:47;;;;;;;14.80;4.60;;;6.40;99.90;;;;;;5034772;28;20159;-73
2022/09/22 05:12:12;;;;;;;4.07;2.80;;;6.40;99.90;;;;;;5034818;28;20199;-73
2022/09/22 05:14:38;;;;;;;6.70;3.50;;;6.50;99.90;;;;;;5033228;28;20200;-73
2022/09/22 05:17:03;;;;;;;6.20;3.63;;;6.50;99.90;;;;;;5033301;28;20188;-73
2022/09/22 05:19:29;;;;;;;6.33;4.10;;;6.50;99.90;;;;;;5034512;28;20222;-73
2022/09/22 05:21:54;;;;;;;7.80;3.80;;;6.50;99.90;;;;;;5033146;28;20159;-73
2022/09/22 05:24:20;;;;;;;6.27;3.60;;;6.60;99.90;;;;;;5034336;28;20894;-73
2022/09/22 05:26:46;;;;;;;6.13;4.27;;;6.60;99.90;;;;;;5034390;28;20188;-73
2022/09/22 05:29:11;;;;;;;8.90;3.90;;;6.60;99.90;;;;;;5034185;28;20190;-73
2022/09/22 05:31:37;;;;;;;7.43;3.73;;;6.60;99.90;;;;;;5034113;28;20163;-73
2022/09/22 05:34:02;;;;;;;4.03;3.17;;;6.70;99.90;;;;;;5032763;28;20217;-73
2022/09/22 05:36:28;;;;;;;6.67;3.80;;;6.70;99.90;;;;;;5033774;28;20587;-72
2022/09/22 05:38:53;;;;;;;6.53;3.70;;;6.70;99.90;;;;;;5033896;28;20196;-72
2022/09/22 05:41:19;;;;;;;4.73;3.30;;;6.70;99.90;;;;;;5034033;28;20159;-72
2022/09/22 05:43:44;;;;;;;5.23;3.00;;;6.60;99.90;;;;;;5034049;28;20185;-72
2022/09/22 05:46:10;;;;;;;6.77;4.33;;;6.60;99.90;;;;;;5033673;28;20687;-72
2022/09/22 05:48:35;;;;;;;5.77;3.70;;;6.60;99.90;;;;;;5032650;28;20175;-73
2022/09/22 05:51:01;;;;;;;7.47;4.10;;;6.60;99.90;;;;;;5033683;28;20171;-72
2022/09/22 05:53:27;;;;;;;4.53;3.67;;;6.70;99.90;;;;;;5032641;28;20171;-71
2022/09/22 05:55:52;;;;;;;3.87;3.40;;;6.70;99.90;;;;;;5033173;28;20464;-72
2022/09/22 05:58:19;;;;;;;9.53;5.50;;;6.70;99.90;;;;;;5033631;28;20175;-72
2022/09/22 06:00:44;;;;;;;5.73;4.10;;;6.90;99.90;;;;;;5033491;28;20171;-71
2022/09/22 06:03:10;;;;;;;5.03;3.53;;;7.00;99.90;;;;;;5033411;28;20425;-73
2022/09/22 06:05:36;;;;;;;4.10;3.70;;;7.10;99.90;;;;;;5033244;28;20695;-73
2022/09/22 06:08:05;;;;;;;5.80;4.77;;;7.00;99.90;;;;;;5033613;28;20175;-73
2022/09/22 06:10:33;;;;;;;4.27;3.23;;;7.10;99.90;;;;;;5033472;28;20167;-73
2022/09/22 06:13:08;;;;;;;4.33;3.57;;;7.10;99.90;;;;;;5032383;28;20854;-73
2022/09/22 06:15:36;;;;;;;8.90;3.30;;;7.20;99.90;;;;;;5032108;28;20454;-73
2022/09/22 06:18:05;;;;;;;9.20;4.10;;;7.20;99.90;;;;;;5032251;28;20418;-73
2022/09/22 06:20:32;;;;;;;5.27;3.90;;;7.30;99.90;;;;;;5033375;28;20771;-73
2022/09/22 06:22:58;;;;;;;7.97;4.10;;;7.40;99.90;;;;;;5033360;28;20434;-73
2022/09/22 06:25:26;;;;;;;5.73;4.50;;;7.50;99.90;;;;;;5032642;28;20430;-73
2022/09/22 06:28:04;;;;;;;8.40;3.90;;;7.60;99.90;;;;;;5033047;28;20779;-72
2022/09/22 06:30:33;;;;;;;7.37;4.40;;;7.60;99.90;;;;;;5032055;28;20779;-73
2022/09/22 06:32:59;;;;;;;6.67;3.87;;;7.70;99.90;;;;;;5032045;28;20482;-74
2022/09/22 06:35:25;;;;;;;5.33;3.90;;;7.80;99.90;;;;;;5032571;28;20541;-74
2022/09/22 06:37:57;;;;;;;17.20;8.73;;;7.90;99.90;;;;;;5033217;28;20175;-74
2022/09/22 06:40:24;;;;;;;11.63;6.60;;;8.00;99.90;;;;;;5030881;28;20541;-72
2022/09/22 06:42:56;;;;;;;8.20;4.77;;;8.10;99.90;;;;;;5032120;28;20402;-73
2022/09/22 06:45:22;;;;;;;6.07;4.23;;;8.20;99.90;;;;;;5032016;28;20426;-73
2022/09/22 06:47:47;;;;;;;9.13;5.20;;;8.30;99.90;;;;;;5032228;28;20414;-73
2022/09/22 06:50:13;;;;;;;8.50;4.60;;;8.40;99.90;;;;;;5032587;28;20540;-73
2022/09/22 06:52:38;;;;;;;5.83;4.47;;;8.50;99.90;;;;;;5032619;28;20179;-73
2022/09/22 06:55:04;;;;;;;7.80;5.90;;;8.60;99.90;;;;;;5032162;28;20275;-72
2022/09/22 06:57:31;;;;;;;7.10;4.53;;;8.70;99.90;;;;;;5032568;28;20251;-72
2022/09/22 07:00:00;;;;;;;6.63;4.63;;;8.70;99.90;;;;;;5032446;28;20429;-72
2022/09/22 07:02:28;;;;;;;5.00;4.10;;;8.80;99.90;;;;;;5031117;28;20433;-72
2022/09/22 07:04:57;;;;;;;7.07;4.70;;;9.00;99.90;;;;;;5031753;28;20414;-72
2022/09/22 07:07:26;;;;;;;4.73;4.20;;;9.10;99.90;;;;;;5032378;28;20402;-71
2022/09/22 07:09:52;;;;;;;11.10;4.80;;;9.30;99.90;;;;;;5032341;28;20410;-71
2022/09/22 07:12:18;;;;;;;7.50;5.10;;;9.40;99.90;;;;;;5032282;28;20763;-72
2022/09/22 07:14:47;;;;;;;8.53;4.70;;;9.40;99.90;;;;;;5031878;28;20248;-71
2022/09/22 07:17:13;;;;;;;12.30;5.10;;;9.60;99.90;;;;;;5032183;28;20402;-71
2022/09/22 07:19:38;;;;;;;5.53;4.83;;;9.70;99.90;;;;;;5032241;28;20405;-72
2022/09/22 07:22:05;;;;;;;5.13;4.53;;;9.80;99.90;;;;;;5030936;28;20167;-72
2022/09/22 07:24:31;;;;;;;14.20;4.77;;;9.80;99.90;;;;;;5030864;28;20182;-73
2022/09/22 07:27:03;;;;;;;9.70;4.93;;;10.10;99.90;;;;;;5032046;28;20422;-72
2022/09/22 07:29:29;;;;;;;6.30;4.37;;;10.20;99.90;;;;;;5032217;28;20229;-73
2022/09/22 07:31:58;;;;;;;7.27;5.60;;;10.40;99.90;;;;;;5032089;28;21172;-73
2022/09/22 07:34:27;;;;;;;7.90;4.63;;;10.50;99.90;;;;;;5031834;28;20458;-73
2022/09/22 07:36:53;;;;;;;5.83;4.10;;;10.60;99.90;;;;;;5031941;28;20425;-73
2022/09/22 07:39:19;;;;;;;8.13;4.23;;;10.70;99.90;;;;;;5032101;28;20405;-72
2022/09/22 07:41:45;;;;;;;6.27;4.90;;;10.90;99.90;;;;;;5031870;28;20406;-73
2022/09/22 07:46:57;;;;;;;7.13;4.47;;;11.10;99.90;;;;;;5031869;28;20465;-73
2022/09/22 07:49:23;;;;;;;4.30;3.57;;;11.30;99.90;;;;;;5032005;28;20398;-73
2022/09/22 07:51:50;;;;;;;6.10;3.37;;;11.40;99.90;;;;;;5031595;28;20775;-73
2022/09/22 07:54:15;;;;;;;7.20;5.23;;;11.50;99.90;;;;;;5031328;28;20164;-73
2022/09/22 07:56:43;;;;;;;5.33;4.10;;;11.70;99.90;;;;;;5031278;28;20480;-73
2022/09/22 07:59:11;;;;;;;4.80;4.10;;;11.90;99.90;;;;;;5031405;28;20258;-73
2022/09/22 08:01:38;;;;;;;6.17;4.10;;;12.20;99.90;;;;;;5031672;28;20402;-73
2022/09/22 08:04:04;;;;;;;6.80;3.80;;;12.70;99.90;;;;;;5031683;28;20900;-73
2022/09/22 08:06:30;;;;;;;7.07;3.50;;;13.50;99.90;;;;;;5031624;28;20458;-73
2022/09/22 08:08:56;;;;;;;6.53;3.20;;;14.70;99.90;;;;;;5031731;28;20245;-74
2022/09/22 08:11:25;;;;;;;4.70;3.67;;;16.20;99.90;;;;;;5031587;28;20757;-73
2022/09/22 08:14:01;;;;;;;12.83;4.33;;;17.60;99.90;;;;;;5031613;28;20406;-74
2022/09/22 08:16:30;;;;;;;5.80;3.90;;;18.50;99.90;;;;;;5032802;28;20429;-74
2022/09/22 08:18:58;;;;;;;4.47;3.23;;;19.50;99.90;;;;;;5035808;28;20394;-75
2022/09/22 08:21:37;;;;;;;4.40;2.93;;;20.90;99.90;;;;;;5035564;28;20741;-72
2022/09/22 08:24:04;;;;;;;4.43;3.93;;;22.50;99.90;;;;;;5035631;28;20386;-72
2022/09/22 08:26:30;;;;;;;4.10;2.60;;;24.20;86.70;;;;;;5035279;28;20410;-72
2022/09/22 08:28:56;;;;;;;4.70;3.03;;;25.50;72.20;;;;;;5035345;28;20405;-74
2022/09/22 08:31:26;;;;;;;2.50;2.30;;;26.20;61.50;;;;;;5035381;28;21038;-73
2022/09/22 08:33:54;;;;;;;3.80;3.37;;;27.30;57.20;;;;;;5035501;28;20395;-73
2022/09/22 08:36:21;;;;;;;8.27;5.00;;;28.10;53.70;;;;;;5035081;28;20449;-73
2022/09/22 08:38:48;;;;;;;4.57;2.50;;;28.70;52.50;;;;;;5035296;28;20514;-73
2022/09/22 08:41:19;;;;;;;4.17;2.97;;;29.90;49.70;;;;;;5035210;28;20406;-73
2022/09/22 08:43:48;;;;;;;3.30;2.90;;;30.30;46.50;;;;;;5035428;28;20404;-74
2022/09/22 08:46:14;;;;;;;3.00;2.60;;;30.80;46.10;;;;;;5034941;28;20430;-74
2022/09/22 08:51:54;;;;;;;2.63;2.43;;;32.20;43.10;;;;;;5035591;28;20601;-73
2022/09/22 08:54:30;;;;;;;3.90;2.73;;;32.60;41.80;;;;;;5033714;28;20429;-74
2022/09/22 08:57:26;;;;;;;2.97;2.27;;;33.00;40.30;;;;;;5035137;28;20479;-74
2022/09/22 09:00:13;;;;;;;3.83;2.47;;;33.20;40.30;;;;;;5033790;28;20417;-74
2022/09/22 09:02:59;;;;;;;4.60;2.57;;;33.40;40.50;;;;;;5034775;28;20422;-74
2022/09/22 09:06:03;;;;;;;4.27;3.03;;;33.80;39.70;;;;;;5034360;28;20479;-74
2022/09/22 09:08:43;;;;;;;3.30;3.00;;;34.60;37.80;;;;;;5033954;28;20421;-73
2022/09/22 09:11:37;;;;;;;3.30;2.90;;;35.40;38.20;;;;;;5034804;28;20410;-73
2022/09/22 09:14:25;;;;;;;3.07;2.50;;;35.70;37.20;;;;;;5034789;28;20413;-73
2022/09/22 09:16:59;;;;;;;3.10;2.80;;;35.70;34.90;;;;;;5034792;28;20449;-74
2022/09/22 09:19:32;;;;;;;3.77;2.93;;;35.90;35.60;;;;;;5034698;28;20418;-74
2022/09/22 09:22:06;;;;;;;3.30;3.00;;;36.10;35.20;;;;;;5034375;28;20930;-73
2022/09/22 09:24:37;;;;;;;2.67;2.43;;;36.30;35.10;;;;;;5034290;28;20414;-73
2022/09/22 09:27:11;;;;;;;3.20;2.80;;;36.90;33.90;;;;;;5034341;28;20436;-73
2022/09/22 09:30:00;;;;;;;4.07;3.47;;;37.00;33.60;;;;;;5034349;28;20421;-74
2022/09/22 09:32:52;;;;;;;3.87;3.20;;;37.10;33.60;;;;;;5034144;28;20413;-74
2022/09/22 09:35:23;;;;;;;3.70;3.33;;;37.80;33.80;;;;;;5034046;28;20485;-74
2022/09/22 09:37:50;;;;;;;4.00;3.60;;;38.20;33.00;;;;;;5033050;28;20389;-74
2022/09/22 09:40:18;;;;;;;5.43;3.50;;;38.60;32.50;;;;;;5034248;28;20415;-73
2022/09/22 09:43:02;;;;;;;3.40;3.10;;;39.30;32.00;;;;;;5032897;28;20382;-74
2022/09/22 09:46:10;;;;;;;3.80;3.50;;;39.60;31.50;;;;;;5033812;28;20878;-73
2022/09/22 09:49:10;;;;;;;3.33;3.03;;;39.70;30.50;;;;;;5033909;28;20825;-73
2022/09/22 09:51:41;;;;;;;6.43;3.50;;;40.00;30.80;;;;;;5034034;28;20381;-73
2022/09/22 09:54:08;;;;;;;4.77;4.37;;;40.30;30.40;;;;;;5034014;28;20406;-73
2022/09/22 09:56:37;;;;;;;4.00;3.60;;;40.50;30.00;;;;;;5033555;28;20416;-73
2022/09/22 10:01:51;;;;;;;4.30;4.00;;;41.00;29.60;;;;;;5033836;28;20897;-74
2022/09/22 10:04:20;;;;;;;5.33;3.83;;;41.10;29.30;;;;;;5033200;28;20489;-73
2022/09/22 10:06:46;;;;;;;3.27;3.03;;;41.20;28.80;;;;;;5032116;28;20462;-72
2022/09/22 10:09:26;;;;;;;3.70;3.40;;;41.00;28.90;;;;;;5032149;28;20377;-73
2022/09/22 10:12:03;;;;;;;4.10;3.70;;;41.40;28.90;;;;;;5033369;28;20245;-72
2022/09/22 10:14:31;;;;;;;3.30;3.00;;;41.40;28.80;;;;;;5032006;28;20459;-72
2022/09/22 10:16:57;;;;;;;4.20;3.80;;;41.40;28.60;;;;;;5033343;28;20492;-72
2022/09/22 10:19:29;;;;;;;6.23;4.00;;;41.80;28.80;;;;;;5033474;28;20409;-72
2022/09/22 10:22:26;;;;;;;4.47;3.40;;;42.30;27.80;;;;;;5033437;28;20171;-72
2022/09/22 10:25:00;;;;;;;3.43;3.13;;;41.60;27.40;;;;;;5033027;28;20410;-73
2022/09/22 10:27:28;;;;;;;2.67;2.47;;;41.20;26.70;;;;;;5033410;28;20560;-73
2022/09/22 10:30:12;;;;;;;2.90;2.70;;;41.20;27.40;;;;;;5032307;28;20901;-73
2022/09/22 10:32:38;;;;;;;2.97;2.67;;;41.50;27.20;;;;;;5031881;28;20389;-72
2022/09/22 10:35:25;;;;;;;3.17;2.87;;;41.80;27.50;;;;;;5032769;28;20432;-72
2022/09/22 10:37:53;;;;;;;3.87;2.50;;;42.20;26.80;;;;;;5033283;28;20485;-72
2022/09/22 10:40:22;;;;;;;2.90;2.63;;;41.80;26.70;;;;;;5032700;28;20986;-72
2022/09/22 10:42:50;;;;;;;2.90;2.60;;;42.00;26.60;;;;;;5031426;28;20410;-74
2022/09/22 10:45:18;;;;;;;2.60;2.40;;;42.00;27.00;;;;;;5032352;28;20396;-73
2022/09/22 10:47:57;;;;;;;3.57;3.27;;;41.80;26.40;;;;;;5032868;28;20454;-72
2022/09/22 10:50:55;;;;;;;2.20;1.97;;;41.10;26.10;;;;;;5032993;28;20849;-73
2022/09/22 10:53:38;;;;;;;3.13;2.83;;;41.00;26.10;;;;;;5020835;28;20417;-72
2022/09/22 10:56:28;;;;;;;7.00;2.40;;;41.20;26.00;;;;;;5032499;28;20475;-72
2022/09/22 10:59:25;;;;;;;2.83;2.63;;;40.60;26.50;;;;;;5031600;28;20385;-73
2022/09/22 11:01:56;;;;;;;3.40;2.50;;;40.80;26.90;;;;;;5032490;28;20397;-73
2022/09/22 11:04:28;;;;;;;2.90;2.57;;;40.70;25.50;;;;;;5032423;28;20403;-72
2022/09/22 11:13:22;;;;;;;2.60;2.40;;;41.00;26.40;;;;;;5032490;28;20364;-72
2022/09/22 11:16:26;;;;;;;2.50;2.30;;;41.80;26.20;;;;;;5032014;28;20533;-73
2022/09/22 11:18:58;;;;;;;2.50;2.30;;;42.40;25.40;;;;;;5032357;28;20900;-73
2022/09/22 11:21:53;;;;;;;2.30;2.07;;;42.60;25.80;;;;;;5032156;28;20390;-72
2022/09/22 11:24:44;;;;;;;2.73;2.53;;;43.00;25.60;;;;;;5031866;28;20422;-72
2022/09/22 11:27:34;;;;;;;2.50;2.30;;;43.50;25.70;;;;;;5032087;28;20405;-73
2022/09/22 11:30:10;;;;;;;2.40;2.17;;;43.90;25.50;;;;;;5032309;28;20728;-72
2022/09/22 11:33:03;;;;;;;2.13;1.93;;;43.50;24.10;;;;;;5032044;28;20377;-73
2022/09/22 11:35:47;;;;;;;2.00;1.90;;;42.90;25.20;;;;;;5031753;28;20436;-73
2022/09/22 11:38:18;;;;;;;2.00;1.90;;;42.50;25.10;;;;;;5030991;28;20930;-72
2022/09/22 11:40:47;;;;;;;2.30;2.10;;;42.40;25.00;;;;;;5031939;28;20398;-72
2022/09/22 11:43:34;;;;;;;2.50;1.80;;;40.20;24.70;;;;;;5031955;28;20438;-72
2022/09/22 11:46:24;;;;;;;1.60;1.50;;;36.90;25.90;;;;;;5031742;28;20396;-72
2022/09/22 11:49:15;;;;;;;1.50;1.40;;;36.50;28.30;;;;;;5031087;28;20417;-72
2022/09/22 11:51:59;;;;;;;1.93;1.50;;;37.10;28.20;;;;;;5033720;28;20398;-72
2022/09/22 11:54:59;;;;;;;2.93;1.83;;;37.60;28.30;;;;;;5035863;28;20398;-72
2022/09/22 11:57:30;;;;;;;2.33;2.13;;;38.20;27.50;;;;;;5036195;28;20402;-72
2022/09/22 12:00:11;;;;;;;4.83;1.80;;;38.00;26.90;;;;;;5036010;28;20394;-72
2022/09/22 12:02:47;;;;;;;2.10;1.80;;;38.40;27.00;;;;;;5035872;28;20926;-72
2022/09/22 12:05:25;;;;;;;2.33;1.63;;;39.00;27.10;;;;;;5035718;28;20417;-72
2022/09/22 12:07:59;;;;;;;1.73;1.37;;;39.50;26.80;;;;;;5034508;28;20959;-72
2022/09/22 12:10:35;;;;;;;1.83;1.57;;;40.10;27.00;;;;;;5035985;28;20404;-72
2022/09/22 12:13:04;;;;;;;2.23;1.73;;;40.30;26.00;;;;;;5035945;28;20390;-71
2022/09/22 12:15:38;;;;;;;1.90;1.40;;;40.60;25.90;;;;;;5035647;28;20512;-72
2022/09/22 12:18:28;;;;;;;1.50;1.40;;;40.60;25.80;;;;;;5035532;28;20405;-72
2022/09/22 12:20:57;;;;;;;1.77;1.67;;;40.70;25.80;;;;;;5035584;28;20825;-73
2022/09/22 12:23:36;;;;;;;1.80;1.63;;;41.30;26.00;;;;;;5035389;28;20385;-73
2022/09/22 12:26:11;;;;;;;1.83;1.73;;;41.60;24.90;;;;;;5035588;28;20492;-73
2022/09/22 12:28:44;;;;;;;2.63;1.73;;;42.10;25.10;;;;;;5035335;28;20504;-73
2022/09/22 12:31:14;;;;;;;1.70;1.60;;;41.80;23.80;;;;;;5034143;28;20392;-72
2022/09/22 12:33:55;;;;;;;1.63;1.53;;;41.90;24.40;;;;;;5033939;28;20404;-72
2022/09/22 12:36:51;;;;;;;1.60;1.50;;;42.20;24.70;;;;;;5033521;28;20476;-72
2022/09/22 12:39:29;;;;;;;1.70;1.50;;;42.40;24.30;;;;;;5031033;28;20430;-72
2022/09/22 12:42:17;;;;;;;2.47;1.93;;;41.80;24.10;;;;;;5035448;28;20372;-72
2022/09/22 12:45:19;;;;;;;1.80;1.70;;;41.50;24.80;;;;;;5035246;28;20385;-72
2022/09/22 12:47:50;;;;;;;3.80;1.50;;;40.80;24.80;;;;;;5031072;28;20874;-72
2022/09/22 12:50:21;;;;;;;1.87;1.67;;;40.60;25.00;;;;;;5035063;28;20415;-72
2022/09/22 12:52:48;;;;;;;1.60;1.50;;;40.10;25.20;;;;;;5035026;28;20418;-72
2022/09/22 12:55:23;;;;;;;1.70;1.40;;;39.30;25.40;;;;;;5034615;28;20508;-72
2022/09/22 12:57:51;;;;;;;5.37;2.90;;;38.70;25.30;;;;;;5034756;28;20434;-72
2022/09/22 13:00:28;;;;;;;1.80;1.70;;;38.80;26.30;;;;;;5034988;28;20427;-72
2022/09/22 13:02:55;;;;;;;1.90;1.77;;;39.00;25.60;;;;;;5034150;28;20488;-72
2022/09/22 13:05:24;;;;;;;1.30;1.20;;;38.60;25.30;;;;;;5034639;28;20408;-72
2022/09/22 13:07:52;;;;;;;2.13;1.30;;;38.50;26.00;;;;;;5034725;28;20411;-72
2022/09/22 13:10:23;;;;;;;1.47;1.37;;;38.70;26.10;;;;;;5034693;28;20488;-72
2022/09/22 13:13:08;;;;;;;1.80;1.43;;;38.70;25.90;;;;;;5034496;28;20747;-72
2022/09/22 13:15:42;;;;;;;1.67;1.20;;;38.70;25.80;;;;;;5034302;28;20434;-73
2022/09/22 13:18:26;;;;;;;2.37;1.80;;;39.20;25.70;;;;;;5034493;28;20398;-73
2022/09/22 13:20:52;;;;;;;1.50;1.40;;;39.10;25.10;;;;;;5034411;28;20888;-72
2022/09/22 13:23:18;;;;;;;2.80;1.70;;;38.70;25.60;;;;;;5034455;28;20369;-73
2022/09/22 13:25:44;;;;;;;2.80;1.80;;;38.90;25.40;;;;;;5033826;28;20183;-72
2022/09/22 13:28:19;;;;;;;1.43;1.33;;;39.30;25.70;;;;;;5034211;28;20164;-72
2022/09/22 13:31:02;;;;;;;6.67;4.77;;;39.40;25.60;;;;;;5034191;28;20945;-72
2022/09/22 13:33:32;;;;;;;1.90;1.70;;;39.70;26.00;;;;;;5034228;28;20409;-73